Date,TemperatureHighF,TemperatureAvgF,TemperatureLowF,DewpointHighF,DewpointAvgF,DewpointLowF,HumidityHigh,HumidityAvg,HumidityLow,PressureMaxIn,PressureMinIn,WindSpeedMaxMPH,WindSpeedAvgMPH,GustSpeedMaxMPH,PrecipitationSumIn
2013-1-1,15,3,-12,6,-5,-18,92,72,50,30.32,30.18,9,0,9,0.00
2013-1-2,20,11,0,9,5,-4,87,75,57,30.18,30.08,12,1,12,0.00
2013-1-10,39,34,17,32,26,15,92,75,51,30.41,29.78,12,3,12,0.19
2013-1-11,45,38,33,43,36,31,100,93,90,29.82,29.50,12,1,12,0.04
2013-1-12,47,28,16,42,21,7,93,75,65,30.01,29.50,20,3,20,0.00
2013-1-13,16,11,7,8,4,1,77,72,65,30.28,29.96,14,2,14,0.00
2013-1-14,22,10,1,11,4,-3,89,77,60,30.46,30.26,15,1,15,0.00
2013-1-15,30,17,3,15,9,-1,87,70,49,30.43,30.00,12,1,12,0.00
2013-1-16,33,26,20,29,19,9,89,74,61,30.16,29.76,15,2,15,0.00
2013-1-17,24,16,7,12,5,-2,86,64,45,30.41,30.13,16,1,16,0.00
2013-1-18,46,30,9,32,23,5,86,74,56,30.40,29.80,19,2,19,0.00
2013-1-19,45,31,8,33,23,-3,92,72,39,30.07,29.63,25,4,25,0.00
2013-1-20,14,7,3,2,-2,-5,80,65,48,30.34,30.05,19,2,19,0.00
2013-1-21,5,-2,-6,-2,-10,-13,77,67,56,30.35,30.20,17,3,17,0.00
2013-1-22,7,-1,-9,-3,-9,-15,79,68,56,30.44,30.32,13,1,13,0.00
2013-1-23,17,9,-2,10,1,-12,85,70,60,30.56,30.12,17,2,17,0.00
2013-1-24,13,4,-5,4,-5,-12,74,66,58,30.70,30.32,8,2,8,0.00
2013-1-25,22,16,7,16,9,1,84,74,60,30.35,29.96,15,2,15,0.00
2013-1-26,23,13,-5,13,4,-10,84,66,51,30.43,30.26,12,1,12,0.02
2013-1-27,32,28,23,30,22,12,92,78,63,30.31,29.80,14,3,14,0.00
2013-1-28,35,33,31,33,30,29,96,90,88,29.93,29.67,7,0,7,0.24
2013-1-29,45,37,32,43,35,29,94,92,89,29.72,29.48,11,1,11,0.46
2013-1-30,32,23,12,30,19,6,91,85,75,29.67,29.40,18,2,18,0.00
2013-1-31,12,6,-7,8,0,-12,84,75,63,30.24,29.66,17,3,17,0.00
2013-2-1,5,-2,-16,-2,-10,-20,82,71,55,30.36,30.14,11,1,11,0.00
2013-2-2,12,5,-5,2,-1,-9,92,75,58,30.18,30.02,10,0,10,0.03
2013-2-3,18,12,3,9,6,-1,86,76,59,30.08,29.97,17,1,17,0.00
2013-2-4,19,11,-1,10,4,-6,92,74,48,30.03,29.92,11,1,11,0.01
2013-2-5,28,17,-3,23,12,-7,92,81,73,30.14,29.77,20,2,20,0.00
2013-2-6,29,15,-7,27,10,-12,92,81,72,30.22,30.04,12,1,12,0.00
2013-2-7,33,29,25,30,26,20,92,88,81,30.17,29.96,11,0,11,0.00
2013-2-8,27,16,-3,20,9,-7,88,76,57,30.39,30.16,12,0,12,0.03
2013-2-9,28,18,-4,24,15,-8,89,85,81,30.39,30.03,16,2,16,0.00
2013-2-10,42,33,28,40,31,24,93,90,85,30.04,29.30,16,3,16,0.21
2013-2-11,34,28,21,32,23,15,90,83,75,30.03,29.30,22,4,22,0.02
2013-2-12,33,21,12,22,15,9,90,78,62,30.08,29.84,14,1,14,0.02
2013-2-13,40,27,11,30,21,8,92,78,58,29.85,29.59,9,0,9,0.00
2013-2-14,34,30,19,32,23,8,92,76,56,30.09,29.54,22,2,22,0.07
2013-2-15,22,11,-2,9,2,-7,92,68,51,30.26,30.07,13,1,13,0.00
2013-2-16,18,6,-7,3,-2,-12,92,71,50,30.25,30.18,12,1,12,0.00
2013-2-17,28,12,-11,19,3,-15,92,69,53,30.23,29.84,14,2,14,0.00
2013-2-18,42,30,17,31,23,11,89,76,64,29.87,29.50,20,4,20,0.00
2013-2-19,16,9,4,12,1,-6,83,69,58,30.29,29.60,22,5,22,0.00
2013-2-20,22,10,0,9,1,-6,92,68,51,30.44,30.28,13,1,13,0.00
2013-2-21,23,15,2,20,10,-2,89,80,69,30.48,30.02,15,2,15,0.00
2013-2-22,29,24,21,24,20,18,95,84,76,30.07,29.81,17,1,17,0.14
2013-2-23,30,24,12,21,18,8,86,78,64,29.97,29.83,12,1,12,0.07
2013-2-24,37,21,5,22,14,1,89,76,51,30.15,29.96,7,0,7,0.07
2013-2-25,38,27,18,26,21,15,92,77,59,30.15,30.02,9,0,9,0.00
2013-2-26,35,29,21,26,23,19,90,78,67,30.04,29.73,20,2,20,0.00
2013-2-27,34,31,28,30,26,24,92,83,75,29.87,29.69,13,1,13,0.11
2013-2-28,32,30,26,26,22,16,84,73,64,30.16,29.87,13,1,13,0.03
2013-3-1,30,21,7,17,13,2,92,71,55,30.28,30.14,10,1,10,0.01
2013-3-2,30,14,0,11,4,-4,87,67,33,30.32,30.20,13,1,13,0.00
2013-3-3,32,14,-2,11,3,-6,92,66,25,30.21,30.09,6,0,6,0.00
2013-3-4,29,22,10,22,15,5,83,73,55,30.13,30.02,14,2,14,0.00
2013-3-5,29,26,24,24,22,20,88,85,77,30.19,29.94,10,1,10,0.04
2013-3-6,30,21,3,21,15,-2,87,78,63,30.37,30.17,12,2,12,0.11
2013-3-7,35,16,-2,19,9,-6,92,73,50,30.44,30.35,6,0,6,0.22
2013-3-8,40,24,4,25,17,0,89,74,55,30.46,30.22,17,2,17,0.02
2013-3-9,38,36,30,35,31,24,91,84,74,30.24,29.74,18,3,18,0.38
2013-3-10,38,35,32,36,33,29,93,91,89,29.81,29.65,15,1,15,0.55
2013-3-11,32,30,27,30,26,23,92,88,84,29.79,29.59,15,1,15,0.23
2013-3-12,29,25,20,23,20,15,88,80,70,30.10,29.78,14,2,14,0.10
2013-3-13,32,21,12,17,10,5,92,66,36,30.34,30.08,16,2,16,0.01
2013-3-14,36,23,10,27,18,7,92,83,72,30.32,30.03,11,1,11,0.09
2013-3-15,34,30,20,31,27,18,92,89,82,30.05,29.79,12,1,12,0.16
2013-3-16,29,23,13,27,17,10,92,81,65,30.20,29.82,12,1,12,0.04
2013-3-17,29,20,10,18,11,3,87,67,55,30.29,29.98,15,2,15,0.00
2013-3-18,31,21,12,27,16,7,90,83,70,30.00,29.58,17,2,17,0.12
2013-3-19,28,17,9,9,6,2,78,62,42,30.10,29.74,20,5,20,0.01
2013-3-20,20,11,-1,6,0,-7,81,62,51,30.13,30.07,19,3,19,0.00
2013-3-21,27,11,-6,10,2,-10,86,68,45,30.14,30.06,15,1,15,0.01
2013-3-22,35,19,1,18,8,-2,92,66,38,30.11,30.04,11,1,11,0.00
2013-3-23,39,28,12,22,16,6,89,64,41,30.15,30.05,11,0,11,0.00
2013-3-24,32,29,25,26,22,19,83,74,67,30.08,29.85,12,1,12,0.01
2013-3-25,34,29,21,24,20,15,81,68,60,30.15,29.88,17,2,17,0.00
2013-3-26,39,31,21,24,20,15,80,65,45,30.27,30.14,14,1,14,0.00
2013-3-27,41,33,22,24,21,16,80,63,40,30.33,30.27,14,1,14,0.00
2013-3-28,45,31,15,27,19,11,90,64,36,30.36,30.28,8,0,8,0.00
2013-3-29,50,33,17,29,21,14,91,65,34,30.33,30.18,8,0,8,0.00
2013-3-30,49,40,30,41,32,25,92,74,55,30.19,29.81,17,2,17,0.12
2013-3-31,39,34,29,36,27,15,93,76,49,29.98,29.74,17,2,17,0.00
2013-4-1,33,26,16,16,13,11,85,60,41,30.23,29.95,19,3,19,0.00
2013-4-2,37,24,12,18,13,8,95,67,38,30.36,30.21,14,2,14,0.00
2013-4-3,44,28,13,21,15,9,90,63,31,30.47,30.22,14,1,14,0.00
2013-4-4,51,40,26,37,26,18,80,57,44,30.24,29.98,18,2,18,0.00
2013-4-5,47,36,20,28,22,17,89,60,35,30.24,30.03,14,1,14,0.00
2013-4-6,58,44,34,47,32,17,91,65,49,30.06,29.48,18,4,18,0.23
2013-4-7,51,40,32,37,33,29,92,76,57,29.95,29.61,14,2,14,0.01
2013-4-8,57,43,37,46,37,32,91,80,66,30.00,29.68,10,1,10,0.08
2013-4-9,39,37,33,36,34,29,92,90,82,30.10,29.88,16,2,16,0.51
2013-4-10,34,32,31,31,30,28,91,89,83,30.10,29.67,21,1,21,1.75
2013-4-11,37,34,31,34,31,28,91,89,83,29.91,29.58,19,2,19,0.82
2013-4-12,35,32,30,31,29,27,92,86,80,29.79,29.55,13,1,13,0.17
2013-4-13,35,32,27,28,26,23,88,78,67,29.99,29.77,13,2,13,0.02
2013-4-14,45,34,26,39,31,23,96,87,78,29.99,29.58,21,2,21,0.45
2013-4-15,50,42,30,43,33,26,94,73,47,29.98,29.58,25,2,25,0.24
2013-4-16,50,37,25,32,28,22,91,72,44,30.30,29.96,15,1,15,0.00
2013-4-17,40,36,29,36,32,25,92,85,72,30.31,29.72,24,2,24,0.50
2013-4-18,42,40,35,40,37,30,95,91,88,29.80,29.28,15,1,15,0.52
2013-4-19,36,32,28,32,26,20,92,79,63,29.98,29.31,26,5,26,0.07
2013-4-20,45,31,18,24,18,12,91,63,29,30.37,29.94,14,1,14,0.01
2013-4-21,51,39,25,39,31,20,90,73,55,30.43,30.17,24,4,24,0.11
2013-4-22,53,47,44,47,42,38,92,84,68,30.19,29.92,11,1,14,0.21
2013-4-23,52,38,30,46,32,25,91,80,66,30.03,29.87,16,2,16,0.04
2013-4-24,52,38,23,35,26,20,92,65,39,30.06,29.93,17,2,17,0.04
2013-4-25,49,38,28,36,30,24,89,74,43,30.24,29.96,13,2,13,0.02
2013-4-26,69,54,28,47,38,25,87,56,38,30.22,30.06,23,3,23,0.00
2013-4-27,67,54,40,50,44,36,93,71,49,30.16,29.96,17,2,17,0.00
2013-4-28,72,54,34,49,41,31,94,67,36,29.97,29.72,18,1,18,0.00
2013-4-29,70,58,46,56,50,41,92,76,59,29.78,29.58,18,1,18,0.29
2013-4-30,84,70,51,59,55,43,93,62,38,29.87,29.56,20,3,20,0.16
2013-5-1,68,55,41,49,42,33,89,65,46,30.26,29.86,18,2,18,0.00
2013-5-2,41,37,32,35,32,29,88,83,76,30.36,30.24,16,1,16,0.11
2013-5-3,42,36,32,40,33,29,96,90,88,30.27,30.01,12,1,12,0.91
2013-5-4,70,54,42,56,47,40,93,79,54,30.06,29.98,11,1,11,0.09
2013-5-5,74,56,41,51,45,38,94,70,36,30.05,29.95,10,1,10,0.00
2013-5-6,76,58,39,50,43,37,98,64,27,30.06,29.94,13,1,13,0.00
2013-5-7,78,59,40,54,43,36,93,61,23,30.02,29.92,12,1,12,0.00
2013-5-8,80,62,41,54,45,38,91,59,28,29.99,29.89,10,1,10,0.00
2013-5-9,64,57,50,56,52,44,92,86,62,29.92,29.83,13,1,13,0.95
2013-5-10,60,48,40,47,42,37,92,82,59,29.99,29.89,10,1,13,0.07
2013-5-11,52,45,39,46,33,23,94,64,38,30.07,29.78,31,4,31,0.00
2013-5-12,54,42,32,29,25,21,79,53,30,30.13,30.05,19,3,19,0.00
2013-5-13,65,49,26,39,30,22,91,54,26,30.16,29.76,15,2,15,0.00
2013-5-14,88,71,47,59,50,39,84,51,28,29.80,29.44,19,3,19,0.00
2013-5-15,74,61,46,54,45,40,88,61,32,29.83,29.52,15,2,15,0.00
2013-5-16,84,65,43,61,47,39,93,57,27,29.91,29.80,12,1,12,0.00
2013-5-17,62,55,47,54,46,34,92,76,41,30.03,29.89,15,2,15,0.94
2013-5-18,78,63,46,65,55,44,92,77,59,30.02,29.84,11,1,11,0.00
2013-5-19,84,69,54,66,60,51,94,74,48,29.86,29.56,22,2,22,0.01
2013-5-20,79,68,60,63,59,57,92,76,47,29.72,29.50,24,3,24,0.53
2013-5-21,70,62,53,62,57,49,94,83,62,29.64,29.50,16,1,16,0.19
2013-5-22,61,57,52,58,54,49,94,91,85,29.81,29.59,11,1,11,0.02
2013-5-23,63,52,39,50,42,33,92,73,34,30.29,29.79,17,2,17,0.65
2013-5-24,64,49,33,47,38,30,93,71,38,30.43,30.25,10,1,10,0.01
2013-5-25,58,51,46,46,44,38,91,77,49,30.33,30.25,13,1,13,0.13
2013-5-26,60,52,44,51,44,36,91,75,47,30.27,30.08,12,1,12,0.12
2013-5-27,54,53,50,52,48,42,93,84,69,30.11,29.83,12,2,12,0.14
2013-5-28,64,57,50,60,54,48,93,91,84,29.84,29.66,7,1,7,0.02
2013-5-29,82,67,59,67,61,57,94,82,59,29.83,29.69,15,2,15,0.14
2013-5-30,79,69,58,69,64,55,94,84,57,29.77,29.57,20,3,20,0.21
2013-5-31,78,68,59,64,60,54,90,76,51,29.67,29.57,21,3,21,0.10
2013-6-1,74,63,51,62,54,48,93,75,48,29.74,29.56,15,2,15,0.03
2013-6-2,62,52,41,52,42,38,91,72,48,30.02,29.71,16,2,16,0.02
2013-6-3,68,54,36,53,43,34,94,71,40,30.07,29.98,10,1,10,0.01
2013-6-4,58,53,50,55,51,47,95,91,88,30.13,30.03,6,0,6,0.01
2013-6-5,57,53,49,54,51,46,95,92,90,30.10,29.90,10,1,10,0.01
2013-6-6,57,54,52,54,51,49,93,91,87,29.95,29.87,7,0,7,0.04
2013-6-7,69,56,48,55,49,46,93,79,51,29.98,29.88,9,0,9,0.09
2013-6-8,69,60,48,58,52,46,96,77,53,29.94,29.88,12,1,12,0.06
2013-6-9,74,62,54,62,56,50,93,83,63,29.93,29.75,18,1,18,0.03
2013-6-10,78,65,55,67,59,51,95,82,58,29.82,29.73,11,1,11,0.07
2013-6-11,80,66,50,68,60,48,94,82,61,29.86,29.75,10,0,10,0.04
2013-6-12,74,67,60,68,63,56,93,88,76,29.85,29.57,15,1,15,0.01
2013-6-13,77,65,54,61,56,50,94,75,47,30.03,29.73,14,1,14,0.02
2013-6-14,76,63,49,63,55,47,94,77,50,30.10,29.90,11,1,11,0.01
2013-6-15,78,67,59,70,62,55,93,85,68,29.98,29.75,11,1,11,0.01
2013-6-16,82,67,53,65,56,51,95,73,37,29.86,29.81,14,1,14,0.02
2013-6-17,82,68,52,63,56,50,94,70,38,29.92,29.82,13,1,13,0.02
2013-6-18,73,62,49,57,52,46,90,71,48,30.06,29.91,11,1,11,0.02
2013-6-19,78,62,43,62,51,41,94,72,44,30.11,29.99,10,1,10,0.00
2013-6-20,84,69,52,67,58,50,94,72,44,30.06,29.94,14,2,14,0.01
2013-6-21,79,69,61,68,63,59,93,83,62,29.97,29.77,18,1,18,0.02
2013-6-22,82,70,64,72,66,61,94,85,64,30.05,29.81,18,2,18,0.03
2013-6-23,82,71,62,72,65,59,93,82,60,29.98,29.72,17,2,17,0.05
2013-6-24,78,69,62,69,64,60,94,86,72,29.92,29.77,13,1,13,0.07
2013-6-25,82,71,64,74,66,62,93,87,70,29.84,29.69,21,1,21,0.81
2013-6-26,83,73,65,73,68,62,95,84,63,29.72,29.63,11,1,11,0.00
2013-6-27,85,72,59,71,63,56,95,77,46,29.75,29.66,18,1,18,0.00
2013-6-28,74,65,55,66,60,53,94,84,61,29.70,29.61,17,1,17,0.35
2013-6-29,71,52,60,100,67,54,93,66,69,29.85,29.61,10,0,10,0.19
2013-6-30,3277,48,54,100,68,50,91,46,39,30.03,29.83,255,1,255,0.00
2013-7-1,80,52,53,100,66,50,94,47,39,30.10,30.02,5,1,9,0.00
2013-7-2,76,53,50,100,62,47,94,63,50,30.07,30.00,11,0,11,0.00
2013-7-3,3277,38,50,100,73,47,94,44,51,30.05,29.96,255,0,255,0.00
2013-7-4,3277,58,50,100,65,48,94,58,46,30.02,29.92,255,1,255,0.00
2013-7-5,83,69,53,66,60,51,94,74,47,29.99,29.89,16,1,16,0.00
2013-7-6,84,70,58,68,62,55,94,76,52,29.94,29.85,10,1,10,0.00
2013-7-7,3277,60,62,100,75,60,92,61,58,29.89,29.81,255,1,255,0.00
2013-7-8,88,63,67,100,76,63,93,65,62,29.91,29.79,10,1,10,0.00
2013-7-9,84,58,64,100,76,62,94,65,69,29.91,29.73,16,1,16,0.17
2013-7-10,77,51,55,100,69,51,92,51,49,30.00,29.77,15,1,15,0.00
2013-7-11,81,65,51,66,57,49,94,78,46,30.07,29.98,7,0,7,0.00
2013-7-12,80,50,57,100,71,54,94,49,49,30.09,29.99,9,1,14,0.00
2013-7-13,80,49,56,100,72,54,93,54,53,30.10,29.99,12,1,12,0.00
2013-7-14,3277,51,58,100,77,56,92,47,51,30.17,30.09,255,1,255,0.00
2013-7-15,3277,52,62,100,80,59,94,50,62,30.20,30.12,255,0,255,0.00
2013-7-16,90,61,67,100,78,64,94,58,57,30.19,30.13,11,1,11,0.00
2013-7-17,3277,60,68,100,80,65,94,52,49,30.20,30.08,255,0,255,0.00
2013-7-18,91,76,66,100,71,64,94,71,54,30.08,29.77,13,1,13,0.00
2013-7-19,3277,69,61,100,70,58,91,62,44,29.79,29.68,255,1,255,0.00
2013-7-20,3277,47,60,100,77,58,91,46,53,29.89,29.78,255,1,255,0.00
2013-7-21,3277,45,58,100,73,55,93,59,69,29.90,29.82,255,0,255,1.26
2013-7-22,3277,54,57,100,76,55,94,56,65,29.84,29.59,255,1,255,0.01
2013-7-23,3277,40,52,100,72,49,91,42,54,29.98,29.68,255,1,255,0.00
2013-7-24,3277,45,51,100,68,49,94,48,45,30.04,29.96,255,0,255,0.00
2013-7-25,76,57,49,100,62,47,94,78,67,30.01,29.91,12,1,12,0.48
2013-7-26,74,64,55,100,59,50,94,80,53,29.92,29.81,17,1,17,0.05
2013-7-27,3277,36,50,100,65,44,89,54,63,29.93,29.84,255,1,255,0.04
2013-7-28,3277,40,51,100,67,46,92,54,64,30.01,29.83,255,1,255,0.00
2013-7-29,3277,40,54,100,73,51,92,45,55,30.10,30.00,255,0,255,0.00
2013-7-30,3277,44,54,100,75,51,91,48,59,30.11,30.00,255,1,255,0.00
2013-7-31,3277,1,64,100,100,61,89,1,89,30.02,29.91,255,0,255,0.00
2013-8-1,3277,0,200,100,100,100,0,0,100,29.99,29.83,255,0,255,0.00
2013-8-2,3277,0,200,100,100,100,0,0,100,29.98,29.80,255,0,255,0.00
2013-8-3,3277,0,200,100,100,100,0,0,100,30.14,29.97,255,0,255,0.00
2013-8-4,3277,0,200,100,100,100,0,0,100,30.20,30.05,255,0,255,0.00
2013-8-5,3277,0,200,100,100,100,0,0,100,30.06,29.81,255,0,255,0.00
2013-8-6,3277,0,200,100,100,100,0,0,100,29.83,29.72,255,0,255,0.00
2013-8-7,3277,0,200,100,100,100,0,0,100,29.98,29.72,255,0,255,0.00
2013-8-8,3277,0,200,100,100,100,0,0,100,30.01,29.95,255,0,255,0.00
2013-8-9,3277,0,200,100,100,100,0,0,100,30.07,29.94,255,0,255,0.00
2013-8-10,3277,0,200,100,100,100,0,0,100,30.14,30.06,255,0,255,0.00
2013-8-11,3277,0,200,100,100,100,0,0,100,30.10,29.98,255,0,255,0.00
2013-8-12,3277,0,200,100,100,100,0,0,100,30.00,29.90,255,0,255,0.00
2013-8-13,3277,0,200,100,100,100,0,0,100,30.15,29.99,255,0,255,0.00
2013-8-14,3277,0,200,100,100,100,0,0,100,30.18,30.08,255,0,255,0.00
2013-8-15,3277,0,200,100,100,100,0,0,100,30.12,30.05,255,0,255,0.00
2013-8-16,3277,0,200,100,100,100,0,0,100,30.17,30.10,255,0,255,0.00
2013-8-17,3277,0,200,100,100,100,0,0,100,30.21,30.11,255,0,255,0.00
2013-8-18,3277,0,200,100,100,100,0,0,100,30.18,30.05,255,0,255,0.00
2013-8-19,3277,0,200,100,100,100,0,0,100,30.06,29.97,255,0,255,0.00
2013-8-20,3277,0,200,100,100,100,0,0,100,30.01,29.92,255,0,255,0.00
2013-8-21,3277,0,200,100,100,100,0,0,100,29.98,29.88,255,0,255,0.00
2013-8-22,3277,0,200,100,100,100,0,0,100,30.11,29.95,255,0,255,0.00
2013-8-23,3277,0,200,100,100,100,0,0,100,30.15,30.08,255,0,255,0.00
2013-8-24,3277,0,200,100,100,100,0,0,100,30.19,30.08,255,0,255,0.00
2013-8-25,3277,0,200,100,100,100,0,0,100,30.13,30.02,255,0,255,0.00
2013-8-26,3277,0,200,100,100,100,0,0,100,30.08,29.90,255,0,255,0.00
2013-8-27,3277,0,200,100,100,100,0,0,100,29.92,29.78,255,0,255,0.00